sensor_id;sensor_type;location;lat;lon;timestamp;P1;durP1;ratioP1;P2;durP2;ratioP2
15474;SDS011;7839;50.462;9.678;2023-04-01T00:06:14;1.93;;;0.97;;
15474;SDS011;7839;50.462;9.678;2023-04-01T00:12:54;2.03;;;0.83;;
15474;SDS011;7839;50.462;9.678;2023-04-01T00:19:35;1.63;;;0.98;;
15474;SDS011;7839;50.462;9.678;2023-04-01T00:26:15;3.30;;;1.00;;
15474;SDS011;7839;50.462;9.678;2023-04-01T00:32:58;1.70;;;0.80;;
15474;SDS011;7839;50.462;9.678;2023-04-01T00:39:39;5.37;;;1.20;;
15474;SDS011;7839;50.462;9.678;2023-04-01T00:46:19;1.40;;;1.03;;
15474;SDS011;7839;50.462;9.678;2023-04-01T00:53:00;2.63;;;0.90;;
15474;SDS011;7839;50.462;9.678;2023-04-01T00:59:44;3.40;;;1.30;;
15474;SDS011;7839;50.462;9.678;2023-04-01T01:06:38;2.40;;;0.93;;
15474;SDS011;7839;50.462;9.678;2023-04-01T01:13:30;2.77;;;1.00;;
15474;SDS011;7839;50.462;9.678;2023-04-01T01:20:24;2.77;;;0.70;;
15474;SDS011;7839;50.462;9.678;2023-04-01T01:27:10;1.87;;;1.13;;
15474;SDS011;7839;50.462;9.678;2023-04-01T01:33:58;2.73;;;0.87;;
15474;SDS011;7839;50.462;9.678;2023-04-01T01:40:44;2.83;;;0.90;;
15474;SDS011;7839;50.462;9.678;2023-04-01T01:47:26;1.43;;;0.77;;
15474;SDS011;7839;50.462;9.678;2023-04-01T01:54:12;2.37;;;0.63;;
15474;SDS011;7839;50.462;9.678;2023-04-01T02:00:54;1.80;;;0.80;;
15474;SDS011;7839;50.462;9.678;2023-04-01T02:07:36;1.90;;;0.80;;
15474;SDS011;7839;50.462;9.678;2023-04-01T02:14:27;1.97;;;0.80;;
15474;SDS011;7839;50.462;9.678;2023-04-01T02:21:09;1.13;;;0.60;;
15474;SDS011;7839;50.462;9.678;2023-04-01T02:27:50;3.10;;;1.10;;
15474;SDS011;7839;50.462;9.678;2023-04-01T02:34:31;2.87;;;1.30;;
15474;SDS011;7839;50.462;9.678;2023-04-01T02:41:12;1.87;;;0.70;;
15474;SDS011;7839;50.462;9.678;2023-04-01T02:47:53;1.33;;;0.70;;
15474;SDS011;7839;50.462;9.678;2023-04-01T02:54:33;0.95;;;0.52;;
15474;SDS011;7839;50.462;9.678;2023-04-01T03:01:14;1.20;;;0.70;;
15474;SDS011;7839;50.462;9.678;2023-04-01T03:07:54;1.37;;;0.90;;
15474;SDS011;7839;50.462;9.678;2023-04-01T03:14:35;1.17;;;0.90;;
15474;SDS011;7839;50.462;9.678;2023-04-01T03:21:16;1.97;;;0.80;;
15474;SDS011;7839;50.462;9.678;2023-04-01T03:27:57;2.27;;;0.60;;
15474;SDS011;7839;50.462;9.678;2023-04-01T03:34:39;2.87;;;0.87;;
15474;SDS011;7839;50.462;9.678;2023-04-01T03:41:21;1.90;;;0.70;;
15474;SDS011;7839;50.462;9.678;2023-04-01T03:48:01;2.10;;;0.83;;
15474;SDS011;7839;50.462;9.678;2023-04-01T03:54:41;1.97;;;0.70;;
15474;SDS011;7839;50.462;9.678;2023-04-01T04:01:22;1.73;;;0.63;;
15474;SDS011;7839;50.462;9.678;2023-04-01T04:08:02;1.83;;;0.83;;
15474;SDS011;7839;50.462;9.678;2023-04-01T04:14:44;1.73;;;0.60;;
15474;SDS011;7839;50.462;9.678;2023-04-01T04:21:24;0.93;;;0.83;;
15474;SDS011;7839;50.462;9.678;2023-04-01T04:28:05;1.90;;;0.70;;
15474;SDS011;7839;50.462;9.678;2023-04-01T04:34:45;3.08;;;1.15;;
15474;SDS011;7839;50.462;9.678;2023-04-01T04:41:25;1.30;;;0.70;;
15474;SDS011;7839;50.462;9.678;2023-04-01T04:48:10;1.48;;;0.55;;
15474;SDS011;7839;50.462;9.678;2023-04-01T04:54:51;1.43;;;0.60;;
15474;SDS011;7839;50.462;9.678;2023-04-01T05:01:31;1.17;;;0.67;;
15474;SDS011;7839;50.462;9.678;2023-04-01T05:08:13;1.33;;;0.50;;
15474;SDS011;7839;50.462;9.678;2023-04-01T05:14:53;2.33;;;0.52;;
15474;SDS011;7839;50.462;9.678;2023-04-01T05:21:34;1.20;;;0.60;;
15474;SDS011;7839;50.462;9.678;2023-04-01T05:28:14;2.63;;;0.73;;
15474;SDS011;7839;50.462;9.678;2023-04-01T05:34:56;1.40;;;0.67;;
15474;SDS011;7839;50.462;9.678;2023-04-01T05:41:37;0.40;;;0.37;;
15474;SDS011;7839;50.462;9.678;2023-04-01T05:48:17;1.77;;;0.47;;
15474;SDS011;7839;50.462;9.678;2023-04-01T05:54:58;2.03;;;0.50;;
15474;SDS011;7839;50.462;9.678;2023-04-01T06:01:40;1.03;;;0.50;;
15474;SDS011;7839;50.462;9.678;2023-04-01T06:08:20;1.60;;;0.50;;
15474;SDS011;7839;50.462;9.678;2023-04-01T06:15:10;1.07;;;0.37;;
15474;SDS011;7839;50.462;9.678;2023-04-01T06:29:05;0.93;;;0.30;;
15474;SDS011;7839;50.462;9.678;2023-04-01T06:56:27;1.07;;;0.67;;
15474;SDS011;7839;50.462;9.678;2023-04-01T07:03:30;1.37;;;0.50;;
15474;SDS011;7839;50.462;9.678;2023-04-01T07:10:17;1.10;;;0.40;;
15474;SDS011;7839;50.462;9.678;2023-04-01T07:23:54;1.17;;;0.50;;
15474;SDS011;7839;50.462;9.678;2023-04-01T07:51:15;1.80;;;0.70;;
15474;SDS011;7839;50.462;9.678;2023-04-01T08:25:04;0.40;;;0.30;;
15474;SDS011;7839;50.462;9.678;2023-04-01T08:31:55;0.77;;;0.33;;
15474;SDS011;7839;50.462;9.678;2023-04-01T08:38:54;0.77;;;0.50;;
15474;SDS011;7839;50.462;9.678;2023-04-01T08:45:47;0.33;;;0.33;;
15474;SDS011;7839;50.462;9.678;2023-04-01T08:59:31;0.40;;;0.40;;
15474;SDS011;7839;50.462;9.678;2023-04-01T09:13:15;0.43;;;0.40;;
15474;SDS011;7839;50.462;9.678;2023-04-01T10:08:49;0.40;;;0.40;;
15474;SDS011;7839;50.462;9.678;2023-04-01T11:37:58;0.13;;;0.13;;
15474;SDS011;7839;50.462;9.678;2023-04-01T11:44:47;1.10;;;0.50;;
15474;SDS011;7839;50.462;9.678;2023-04-01T11:52:16;0.47;;;0.47;;
15474;SDS011;7839;50.462;9.678;2023-04-01T12:05:34;0.47;;;0.40;;
15474;SDS011;7839;50.462;9.678;2023-04-01T12:33:19;0.20;;;0.20;;
15474;SDS011;7839;50.462;9.678;2023-04-01T12:40:02;0.40;;;0.40;;
15474;SDS011;7839;50.462;9.678;2023-04-01T12:46:56;0.30;;;0.30;;
15474;SDS011;7839;50.462;9.678;2023-04-01T12:53:50;0.37;;;0.20;;
15474;SDS011;7839;50.462;9.678;2023-04-01T13:27:46;0.20;;;0.20;;
15474;SDS011;7839;50.462;9.678;2023-04-01T13:48:23;0.20;;;0.20;;
15474;SDS011;7839;50.462;9.678;2023-04-01T13:55:19;0.33;;;0.33;;
15474;SDS011;7839;50.462;9.678;2023-04-01T14:08:55;1.90;;;0.30;;
15474;SDS011;7839;50.462;9.678;2023-04-01T14:22:38;0.30;;;0.30;;
15474;SDS011;7839;50.462;9.678;2023-04-01T14:43:28;0.30;;;0.30;;
15474;SDS011;7839;50.462;9.678;2023-04-01T14:50:22;0.20;;;0.20;;
15474;SDS011;7839;50.462;9.678;2023-04-01T14:57:11;0.27;;;0.27;;
15474;SDS011;7839;50.462;9.678;2023-04-01T15:04:03;0.30;;;0.30;;
15474;SDS011;7839;50.462;9.678;2023-04-01T15:17:58;0.20;;;0.20;;
15474;SDS011;7839;50.462;9.678;2023-04-01T15:25:00;0.50;;;0.23;;
15474;SDS011;7839;50.462;9.678;2023-04-01T15:31:46;0.47;;;0.47;;
15474;SDS011;7839;50.462;9.678;2023-04-01T15:38:34;0.53;;;0.30;;
15474;SDS011;7839;50.462;9.678;2023-04-01T15:45:29;0.20;;;0.20;;
15474;SDS011;7839;50.462;9.678;2023-04-01T16:12:41;0.67;;;0.50;;
15474;SDS011;7839;50.462;9.678;2023-04-01T16:47:11;0.40;;;0.40;;
15474;SDS011;7839;50.462;9.678;2023-04-01T16:54:00;0.40;;;0.40;;
15474;SDS011;7839;50.462;9.678;2023-04-01T17:00:49;0.30;;;0.30;;
15474;SDS011;7839;50.462;9.678;2023-04-01T17:14:41;0.73;;;0.50;;
15474;SDS011;7839;50.462;9.678;2023-04-01T17:28:16;0.40;;;0.40;;
15474;SDS011;7839;50.462;9.678;2023-04-01T17:35:03;0.63;;;0.50;;
15474;SDS011;7839;50.462;9.678;2023-04-01T17:41:57;0.53;;;0.53;;
15474;SDS011;7839;50.462;9.678;2023-04-01T17:48:42;0.40;;;0.40;;
15474;SDS011;7839;50.462;9.678;2023-04-01T18:16:58;0.50;;;0.50;;
15474;SDS011;7839;50.462;9.678;2023-04-01T18:30:05;0.60;;;0.60;;
15474;SDS011;7839;50.462;9.678;2023-04-01T18:36:49;0.50;;;0.50;;
15474;SDS011;7839;50.462;9.678;2023-04-01T18:50:33;1.57;;;0.70;;
15474;SDS011;7839;50.462;9.678;2023-04-01T18:57:18;0.40;;;0.40;;
15474;SDS011;7839;50.462;9.678;2023-04-01T19:04:09;0.60;;;0.60;;
15474;SDS011;7839;50.462;9.678;2023-04-01T19:17:44;0.60;;;0.60;;
15474;SDS011;7839;50.462;9.678;2023-04-01T19:31:51;0.80;;;0.60;;
15474;SDS011;7839;50.462;9.678;2023-04-01T19:38:39;0.70;;;0.70;;
15474;SDS011;7839;50.462;9.678;2023-04-01T19:45:38;0.80;;;0.80;;
15474;SDS011;7839;50.462;9.678;2023-04-01T20:19:21;0.53;;;0.53;;
15474;SDS011;7839;50.462;9.678;2023-04-01T20:26:09;0.77;;;0.77;;
15474;SDS011;7839;50.462;9.678;2023-04-01T20:33:09;0.43;;;0.43;;
15474;SDS011;7839;50.462;9.678;2023-04-01T20:47:02;0.57;;;0.57;;
15474;SDS011;7839;50.462;9.678;2023-04-01T21:00:48;0.50;;;0.50;;
15474;SDS011;7839;50.462;9.678;2023-04-01T21:07:36;1.27;;;0.57;;
15474;SDS011;7839;50.462;9.678;2023-04-01T21:28:26;0.47;;;0.47;;
15474;SDS011;7839;50.462;9.678;2023-04-01T22:09:29;0.40;;;0.40;;
15474;SDS011;7839;50.462;9.678;2023-04-01T22:16:16;0.67;;;0.60;;
15474;SDS011;7839;50.462;9.678;2023-04-01T22:23:07;0.83;;;0.30;;
15474;SDS011;7839;50.462;9.678;2023-04-01T22:36:53;0.40;;;0.40;;
15474;SDS011;7839;50.462;9.678;2023-04-01T22:43:40;0.73;;;0.67;;
15474;SDS011;7839;50.462;9.678;2023-04-01T23:03:45;0.50;;;0.50;;
15474;SDS011;7839;50.462;9.678;2023-04-01T23:37:22;0.60;;;0.60;;
15474;SDS011;7839;50.462;9.678;2023-04-01T23:44:04;0.60;;;0.60;;
15474;SDS011;7839;50.462;9.678;2023-04-01T23:50:45;0.60;;;0.60;;
15474;SDS011;7839;50.462;9.678;2023-04-01T23:57:30;0.80;;;0.73;;
